sensor_id;sensor_type;location;lat;lon;timestamp;temperature;humidity
80426;DHT22;69766;51.476;5.704;2023-08-30T00:00:09;12.90;99.90
80426;DHT22;69766;51.476;5.704;2023-08-30T00:02:35;12.80;99.90
80426;DHT22;69766;51.476;5.704;2023-08-30T00:05:03;12.80;99.90
80426;DHT22;69766;51.476;5.704;2023-08-30T00:07:29;12.90;99.90
80426;DHT22;69766;51.476;5.704;2023-08-30T00:09:57;12.80;99.90
80426;DHT22;69766;51.476;5.704;2023-08-30T00:12:23;12.80;99.90
80426;DHT22;69766;51.476;5.704;2023-08-30T00:14:50;12.60;99.90
80426;DHT22;69766;51.476;5.704;2023-08-30T00:17:16;12.50;99.90
80426;DHT22;69766;51.476;5.704;2023-08-30T00:19:41;12.40;99.90
80426;DHT22;69766;51.476;5.704;2023-08-30T00:22:07;12.30;99.90
80426;DHT22;69766;51.476;5.704;2023-08-30T00:24:33;12.20;99.90
80426;DHT22;69766;51.476;5.704;2023-08-30T00:27:01;12.10;99.90
80426;DHT22;69766;51.476;5.704;2023-08-30T00:29:30;12.10;99.90
80426;DHT22;69766;51.476;5.704;2023-08-30T00:31:56;11.90;99.90
80426;DHT22;69766;51.476;5.704;2023-08-30T00:34:22;11.90;99.90
80426;DHT22;69766;51.476;5.704;2023-08-30T00:36:51;11.80;99.90
80426;DHT22;69766;51.476;5.704;2023-08-30T00:39:23;11.80;99.90
80426;DHT22;69766;51.476;5.704;2023-08-30T00:41:49;11.70;99.90
80426;DHT22;69766;51.476;5.704;2023-08-30T00:44:15;11.70;99.90
80426;DHT22;69766;51.476;5.704;2023-08-30T00:46:41;11.80;99.90
80426;DHT22;69766;51.476;5.704;2023-08-30T00:49:07;11.70;99.90
80426;DHT22;69766;51.476;5.704;2023-08-30T00:51:34;11.70;99.90
80426;DHT22;69766;51.476;5.704;2023-08-30T00:54:00;11.70;99.90
80426;DHT22;69766;51.476;5.704;2023-08-30T00:56:29;11.70;99.90
80426;DHT22;69766;51.476;5.704;2023-08-30T00:58:55;11.80;99.90
80426;DHT22;69766;51.476;5.704;2023-08-30T01:01:21;11.80;99.90
80426;DHT22;69766;51.476;5.704;2023-08-30T01:03:47;12.00;99.90
80426;DHT22;69766;51.476;5.704;2023-08-30T01:06:13;11.90;99.90
80426;DHT22;69766;51.476;5.704;2023-08-30T01:08:41;12.00;99.90
80426;DHT22;69766;51.476;5.704;2023-08-30T01:13:54;12.00;99.90
80426;DHT22;69766;51.476;5.704;2023-08-30T01:16:21;12.10;99.90
80426;DHT22;69766;51.476;5.704;2023-08-30T01:18:54;12.10;99.90
80426;DHT22;69766;51.476;5.704;2023-08-30T01:21:32;12.10;99.90
80426;DHT22;69766;51.476;5.704;2023-08-30T01:24:03;12.20;99.90
80426;DHT22;69766;51.476;5.704;2023-08-30T01:27:11;12.10;99.90
80426;DHT22;69766;51.476;5.704;2023-08-30T01:29:39;12.20;99.90
80426;DHT22;69766;51.476;5.704;2023-08-30T01:32:08;12.20;99.90
80426;DHT22;69766;51.476;5.704;2023-08-30T01:34:34;12.10;99.90
80426;DHT22;69766;51.476;5.704;2023-08-30T01:37:06;12.10;99.90
80426;DHT22;69766;51.476;5.704;2023-08-30T01:39:32;12.10;99.90
80426;DHT22;69766;51.476;5.704;2023-08-30T01:41:59;12.00;99.90
80426;DHT22;69766;51.476;5.704;2023-08-30T01:44:32;11.90;99.90
80426;DHT22;69766;51.476;5.704;2023-08-30T01:46:59;11.70;99.90
80426;DHT22;69766;51.476;5.704;2023-08-30T01:49:30;11.70;99.90
80426;DHT22;69766;51.476;5.704;2023-08-30T01:52:02;11.50;99.90
80426;DHT22;69766;51.476;5.704;2023-08-30T01:54:29;11.60;99.90
80426;DHT22;69766;51.476;5.704;2023-08-30T01:56:56;11.50;99.90
80426;DHT22;69766;51.476;5.704;2023-08-30T01:59:24;11.50;99.90
80426;DHT22;69766;51.476;5.704;2023-08-30T02:01:50;11.30;99.90
80426;DHT22;69766;51.476;5.704;2023-08-30T02:04:16;11.30;99.90
80426;DHT22;69766;51.476;5.704;2023-08-30T02:06:42;11.30;99.90
80426;DHT22;69766;51.476;5.704;2023-08-30T02:12:00;11.20;99.90
80426;DHT22;69766;51.476;5.704;2023-08-30T02:14:29;11.20;99.90
80426;DHT22;69766;51.476;5.704;2023-08-30T02:16:56;11.20;99.90
80426;DHT22;69766;51.476;5.704;2023-08-30T02:19:25;11.20;99.90
80426;DHT22;69766;51.476;5.704;2023-08-30T02:21:51;11.20;99.90
80426;DHT22;69766;51.476;5.704;2023-08-30T02:24:17;11.20;99.90
80426;DHT22;69766;51.476;5.704;2023-08-30T02:26:43;11.10;99.90
80426;DHT22;69766;51.476;5.704;2023-08-30T02:29:08;11.10;99.90
80426;DHT22;69766;51.476;5.704;2023-08-30T02:31:35;11.00;99.90
80426;DHT22;69766;51.476;5.704;2023-08-30T02:34:04;11.10;99.90
80426;DHT22;69766;51.476;5.704;2023-08-30T02:36:29;11.00;99.90
80426;DHT22;69766;51.476;5.704;2023-08-30T02:38:55;11.00;99.90
80426;DHT22;69766;51.476;5.704;2023-08-30T02:41:21;11.00;99.90
80426;DHT22;69766;51.476;5.704;2023-08-30T02:43:47;11.00;99.90
80426;DHT22;69766;51.476;5.704;2023-08-30T02:46:12;11.00;99.90
80426;DHT22;69766;51.476;5.704;2023-08-30T02:48:41;11.10;99.90
80426;DHT22;69766;51.476;5.704;2023-08-30T02:51:07;11.20;99.90
80426;DHT22;69766;51.476;5.704;2023-08-30T02:53:32;11.20;99.90
80426;DHT22;69766;51.476;5.704;2023-08-30T02:55:58;11.30;99.90
80426;DHT22;69766;51.476;5.704;2023-08-30T02:58:26;11.40;99.90
80426;DHT22;69766;51.476;5.704;2023-08-30T03:00:52;11.40;99.90
80426;DHT22;69766;51.476;5.704;2023-08-30T03:03:18;11.40;99.90
80426;DHT22;69766;51.476;5.704;2023-08-30T03:05:44;11.50;99.90
80426;DHT22;69766;51.476;5.704;2023-08-30T03:08:13;11.50;99.90
80426;DHT22;69766;51.476;5.704;2023-08-30T03:10:38;11.60;99.90
80426;DHT22;69766;51.476;5.704;2023-08-30T03:13:04;11.60;99.90
80426;DHT22;69766;51.476;5.704;2023-08-30T03:15:31;11.60;99.90
80426;DHT22;69766;51.476;5.704;2023-08-30T03:18:00;11.60;99.90
80426;DHT22;69766;51.476;5.704;2023-08-30T03:20:26;11.70;99.90
80426;DHT22;69766;51.476;5.704;2023-08-30T03:22:55;11.70;99.90
80426;DHT22;69766;51.476;5.704;2023-08-30T03:25:24;11.80;99.90
80426;DHT22;69766;51.476;5.704;2023-08-30T03:27:53;11.70;99.90
80426;DHT22;69766;51.476;5.704;2023-08-30T03:30:19;11.80;99.90
80426;DHT22;69766;51.476;5.704;2023-08-30T03:32:45;11.90;99.90
80426;DHT22;69766;51.476;5.704;2023-08-30T03:35:11;11.80;99.90
80426;DHT22;69766;51.476;5.704;2023-08-30T03:37:39;11.90;99.90
80426;DHT22;69766;51.476;5.704;2023-08-30T03:40:05;11.90;99.90
80426;DHT22;69766;51.476;5.704;2023-08-30T03:42:31;11.90;99.90
80426;DHT22;69766;51.476;5.704;2023-08-30T03:44:57;11.90;99.90
80426;DHT22;69766;51.476;5.704;2023-08-30T03:47:23;12.00;99.90
80426;DHT22;69766;51.476;5.704;2023-08-30T03:49:49;12.00;99.90
80426;DHT22;69766;51.476;5.704;2023-08-30T03:52:17;12.00;99.90
80426;DHT22;69766;51.476;5.704;2023-08-30T03:54:43;12.00;99.90
80426;DHT22;69766;51.476;5.704;2023-08-30T03:57:08;12.10;99.90
80426;DHT22;69766;51.476;5.704;2023-08-30T03:59:34;12.10;99.90
80426;DHT22;69766;51.476;5.704;2023-08-30T04:02:03;12.10;99.90
80426;DHT22;69766;51.476;5.704;2023-08-30T04:04:28;12.10;99.90
80426;DHT22;69766;51.476;5.704;2023-08-30T04:06:54;12.10;99.90
80426;DHT22;69766;51.476;5.704;2023-08-30T04:09:23;12.00;99.90
80426;DHT22;69766;51.476;5.704;2023-08-30T04:11:48;12.10;99.90
80426;DHT22;69766;51.476;5.704;2023-08-30T04:14:14;12.10;99.90
80426;DHT22;69766;51.476;5.704;2023-08-30T04:16:40;12.10;99.90
80426;DHT22;69766;51.476;5.704;2023-08-30T04:19:08;12.00;99.90
80426;DHT22;69766;51.476;5.704;2023-08-30T04:21:34;12.10;99.90
80426;DHT22;69766;51.476;5.704;2023-08-30T04:24:00;12.10;99.90
80426;DHT22;69766;51.476;5.704;2023-08-30T04:26:25;12.00;99.90
80426;DHT22;69766;51.476;5.704;2023-08-30T04:28:54;12.00;99.90
80426;DHT22;69766;51.476;5.704;2023-08-30T04:31:20;12.00;99.90
80426;DHT22;69766;51.476;5.704;2023-08-30T04:33:46;11.90;99.90
80426;DHT22;69766;51.476;5.704;2023-08-30T04:36:11;11.90;99.90
80426;DHT22;69766;51.476;5.704;2023-08-30T04:38:37;11.90;99.90
80426;DHT22;69766;51.476;5.704;2023-08-30T04:41:06;11.90;99.90
80426;DHT22;69766;51.476;5.704;2023-08-30T04:43:32;11.90;99.90
80426;DHT22;69766;51.476;5.704;2023-08-30T04:45:57;11.80;99.90
80426;DHT22;69766;51.476;5.704;2023-08-30T04:48:23;11.70;99.90
80426;DHT22;69766;51.476;5.704;2023-08-30T04:51:03;11.70;99.90
80426;DHT22;69766;51.476;5.704;2023-08-30T04:53:29;11.60;99.90
80426;DHT22;69766;51.476;5.704;2023-08-30T04:55:55;11.70;99.90
80426;DHT22;69766;51.476;5.704;2023-08-30T04:58:21;11.70;99.90
80426;DHT22;69766;51.476;5.704;2023-08-30T05:00:46;11.60;99.90
80426;DHT22;69766;51.476;5.704;2023-08-30T05:03:12;11.60;99.90
80426;DHT22;69766;51.476;5.704;2023-08-30T05:05:38;11.60;99.90
80426;DHT22;69766;51.476;5.704;2023-08-30T05:08:04;11.70;99.90
80426;DHT22;69766;51.476;5.704;2023-08-30T05:10:30;11.70;99.90
80426;DHT22;69766;51.476;5.704;2023-08-30T05:12:58;11.80;99.90
80426;DHT22;69766;51.476;5.704;2023-08-30T05:15:24;11.90;99.90
80426;DHT22;69766;51.476;5.704;2023-08-30T05:17:50;12.00;99.90
80426;DHT22;69766;51.476;5.704;2023-08-30T05:20:18;12.00;99.90
80426;DHT22;69766;51.476;5.704;2023-08-30T05:22:44;12.20;99.90
80426;DHT22;69766;51.476;5.704;2023-08-30T05:25:09;12.30;99.90
80426;DHT22;69766;51.476;5.704;2023-08-30T05:27:35;12.40;99.90
80426;DHT22;69766;51.476;5.704;2023-08-30T05:30:01;12.50;99.90
80426;DHT22;69766;51.476;5.704;2023-08-30T05:32:28;12.60;99.90
80426;DHT22;69766;51.476;5.704;2023-08-30T05:34:54;12.60;99.90
80426;DHT22;69766;51.476;5.704;2023-08-30T05:37:23;12.70;99.90
80426;DHT22;69766;51.476;5.704;2023-08-30T05:39:48;12.90;99.90
80426;DHT22;69766;51.476;5.704;2023-08-30T05:42:14;13.10;99.90
80426;DHT22;69766;51.476;5.704;2023-08-30T05:44:40;13.10;99.90
80426;DHT22;69766;51.476;5.704;2023-08-30T05:47:08;13.10;99.90
80426;DHT22;69766;51.476;5.704;2023-08-30T05:49:34;13.30;99.90
80426;DHT22;69766;51.476;5.704;2023-08-30T05:51:59;13.40;99.90
80426;DHT22;69766;51.476;5.704;2023-08-30T05:54:25;13.40;99.90
80426;DHT22;69766;51.476;5.704;2023-08-30T05:56:54;13.50;99.90
80426;DHT22;69766;51.476;5.704;2023-08-30T05:59:20;13.50;99.90
80426;DHT22;69766;51.476;5.704;2023-08-30T06:01:46;13.60;99.90
80426;DHT22;69766;51.476;5.704;2023-08-30T06:04:12;13.50;99.90
80426;DHT22;69766;51.476;5.704;2023-08-30T06:06:39;13.60;99.90
80426;DHT22;69766;51.476;5.704;2023-08-30T06:09:04;13.60;99.90
80426;DHT22;69766;51.476;5.704;2023-08-30T06:11:33;13.60;99.90
80426;DHT22;69766;51.476;5.704;2023-08-30T06:13:59;13.70;99.90
80426;DHT22;69766;51.476;5.704;2023-08-30T06:16:25;13.80;99.90
80426;DHT22;69766;51.476;5.704;2023-08-30T06:18:50;13.90;99.90
80426;DHT22;69766;51.476;5.704;2023-08-30T06:21:16;13.90;99.90
80426;DHT22;69766;51.476;5.704;2023-08-30T06:23:42;14.00;99.90
80426;DHT22;69766;51.476;5.704;2023-08-30T06:26:11;14.20;99.90
80426;DHT22;69766;51.476;5.704;2023-08-30T06:28:36;14.40;99.90
80426;DHT22;69766;51.476;5.704;2023-08-30T06:31:02;14.40;99.90
80426;DHT22;69766;51.476;5.704;2023-08-30T06:33:28;14.60;99.90
80426;DHT22;69766;51.476;5.704;2023-08-30T06:35:54;14.60;99.90
80426;DHT22;69766;51.476;5.704;2023-08-30T06:38:21;14.60;99.90
80426;DHT22;69766;51.476;5.704;2023-08-30T06:40:47;14.70;99.90
80426;DHT22;69766;51.476;5.704;2023-08-30T06:43:14;14.90;99.90
80426;DHT22;69766;51.476;5.704;2023-08-30T06:45:41;15.10;99.90
80426;DHT22;69766;51.476;5.704;2023-08-30T06:48:08;15.10;99.90
80426;DHT22;69766;51.476;5.704;2023-08-30T06:50:34;15.20;99.90
80426;DHT22;69766;51.476;5.704;2023-08-30T06:53:00;15.20;99.90
80426;DHT22;69766;51.476;5.704;2023-08-30T06:55:25;15.20;99.90
80426;DHT22;69766;51.476;5.704;2023-08-30T06:57:55;15.10;99.90
80426;DHT22;69766;51.476;5.704;2023-08-30T07:00:21;15.20;99.90
80426;DHT22;69766;51.476;5.704;2023-08-30T07:02:46;15.30;99.90
80426;DHT22;69766;51.476;5.704;2023-08-30T07:05:13;15.40;99.90
80426;DHT22;69766;51.476;5.704;2023-08-30T07:14:23;14.80;99.90
80426;DHT22;69766;51.476;5.704;2023-08-30T07:16:55;14.60;99.90
80426;DHT22;69766;51.476;5.704;2023-08-30T07:19:39;14.60;99.90
80426;DHT22;69766;51.476;5.704;2023-08-30T07:22:06;14.60;99.90
80426;DHT22;69766;51.476;5.704;2023-08-30T07:24:35;14.50;99.90
80426;DHT22;69766;51.476;5.704;2023-08-30T07:27:00;14.30;99.90
80426;DHT22;69766;51.476;5.704;2023-08-30T07:29:26;14.30;99.90
80426;DHT22;69766;51.476;5.704;2023-08-30T07:31:55;14.20;99.90
80426;DHT22;69766;51.476;5.704;2023-08-30T07:34:21;14.00;99.90
80426;DHT22;69766;51.476;5.704;2023-08-30T07:36:46;13.80;99.90
80426;DHT22;69766;51.476;5.704;2023-08-30T07:39:12;13.70;99.90
80426;DHT22;69766;51.476;5.704;2023-08-30T07:41:40;13.70;99.90
80426;DHT22;69766;51.476;5.704;2023-08-30T07:44:06;13.70;99.90
80426;DHT22;69766;51.476;5.704;2023-08-30T07:46:31;13.70;99.90
80426;DHT22;69766;51.476;5.704;2023-08-30T07:48:58;13.70;99.90
80426;DHT22;69766;51.476;5.704;2023-08-30T07:51:23;13.80;99.90
80426;DHT22;69766;51.476;5.704;2023-08-30T07:53:49;13.80;99.90
80426;DHT22;69766;51.476;5.704;2023-08-30T07:56:15;13.80;99.90
80426;DHT22;69766;51.476;5.704;2023-08-30T07:58:41;13.80;99.90
80426;DHT22;69766;51.476;5.704;2023-08-30T08:01:07;13.80;99.90
80426;DHT22;69766;51.476;5.704;2023-08-30T08:03:33;13.80;99.90
80426;DHT22;69766;51.476;5.704;2023-08-30T08:05:59;13.80;99.90
80426;DHT22;69766;51.476;5.704;2023-08-30T08:08:25;13.80;99.90
80426;DHT22;69766;51.476;5.704;2023-08-30T08:10:51;13.80;99.90
80426;DHT22;69766;51.476;5.704;2023-08-30T08:13:18;13.80;99.90
80426;DHT22;69766;51.476;5.704;2023-08-30T08:15:43;13.80;99.90
80426;DHT22;69766;51.476;5.704;2023-08-30T08:18:09;13.80;99.90
80426;DHT22;69766;51.476;5.704;2023-08-30T08:20:35;13.80;99.90
80426;DHT22;69766;51.476;5.704;2023-08-30T08:23:02;13.90;99.90
80426;DHT22;69766;51.476;5.704;2023-08-30T08:25:28;14.00;99.90
80426;DHT22;69766;51.476;5.704;2023-08-30T08:27:54;14.00;99.90
80426;DHT22;69766;51.476;5.704;2023-08-30T08:30:20;14.00;99.90
80426;DHT22;69766;51.476;5.704;2023-08-30T08:32:46;14.00;99.90
80426;DHT22;69766;51.476;5.704;2023-08-30T08:35:15;13.90;99.90
80426;DHT22;69766;51.476;5.704;2023-08-30T08:37:40;13.80;99.90
80426;DHT22;69766;51.476;5.704;2023-08-30T08:40:07;13.80;99.90
80426;DHT22;69766;51.476;5.704;2023-08-30T08:42:36;13.80;99.90
80426;DHT22;69766;51.476;5.704;2023-08-30T08:45:03;13.80;99.90
80426;DHT22;69766;51.476;5.704;2023-08-30T08:47:32;13.80;99.90
80426;DHT22;69766;51.476;5.704;2023-08-30T08:50:01;13.80;99.90
80426;DHT22;69766;51.476;5.704;2023-08-30T08:52:29;13.80;99.90
80426;DHT22;69766;51.476;5.704;2023-08-30T08:54:55;13.80;99.90
80426;DHT22;69766;51.476;5.704;2023-08-30T08:57:21;13.80;99.90
80426;DHT22;69766;51.476;5.704;2023-08-30T08:59:47;13.80;99.90
80426;DHT22;69766;51.476;5.704;2023-08-30T09:02:14;13.80;99.90
80426;DHT22;69766;51.476;5.704;2023-08-30T09:04:40;13.80;99.90
80426;DHT22;69766;51.476;5.704;2023-08-30T09:07:06;13.90;99.90
80426;DHT22;69766;51.476;5.704;2023-08-30T09:09:37;14.00;99.90
80426;DHT22;69766;51.476;5.704;2023-08-30T09:12:02;14.00;99.90
80426;DHT22;69766;51.476;5.704;2023-08-30T09:14:29;14.00;99.90
80426;DHT22;69766;51.476;5.704;2023-08-30T09:16:59;14.10;99.90
80426;DHT22;69766;51.476;5.704;2023-08-30T09:19:26;14.10;99.90
80426;DHT22;69766;51.476;5.704;2023-08-30T09:21:56;14.10;99.90
80426;DHT22;69766;51.476;5.704;2023-08-30T09:24:22;14.10;99.90
80426;DHT22;69766;51.476;5.704;2023-08-30T09:26:49;14.20;99.90
80426;DHT22;69766;51.476;5.704;2023-08-30T09:29:17;14.20;99.90
80426;DHT22;69766;51.476;5.704;2023-08-30T09:31:43;14.20;99.90
80426;DHT22;69766;51.476;5.704;2023-08-30T09:34:12;14.30;99.90
80426;DHT22;69766;51.476;5.704;2023-08-30T09:36:40;14.20;99.90
80426;DHT22;69766;51.476;5.704;2023-08-30T09:39:13;14.30;99.90
80426;DHT22;69766;51.476;5.704;2023-08-30T09:41:49;14.30;99.90
80426;DHT22;69766;51.476;5.704;2023-08-30T09:44:17;14.40;99.90
80426;DHT22;69766;51.476;5.704;2023-08-30T09:46:52;14.40;99.90
80426;DHT22;69766;51.476;5.704;2023-08-30T09:49:23;14.50;99.90
80426;DHT22;69766;51.476;5.704;2023-08-30T09:51:53;14.60;99.90
80426;DHT22;69766;51.476;5.704;2023-08-30T09:54:23;14.60;99.90
80426;DHT22;69766;51.476;5.704;2023-08-30T09:56:49;14.60;99.90
80426;DHT22;69766;51.476;5.704;2023-08-30T09:59:18;14.70;99.90
80426;DHT22;69766;51.476;5.704;2023-08-30T10:01:46;14.70;99.90
80426;DHT22;69766;51.476;5.704;2023-08-30T10:04:13;14.80;99.90
80426;DHT22;69766;51.476;5.704;2023-08-30T10:06:40;15.00;99.90
80426;DHT22;69766;51.476;5.704;2023-08-30T10:09:08;15.20;99.90
80426;DHT22;69766;51.476;5.704;2023-08-30T10:11:35;15.50;99.90
80426;DHT22;69766;51.476;5.704;2023-08-30T10:14:05;15.70;99.90
80426;DHT22;69766;51.476;5.704;2023-08-30T10:16:44;16.10;99.90
80426;DHT22;69766;51.476;5.704;2023-08-30T10:19:16;16.70;99.90
80426;DHT22;69766;51.476;5.704;2023-08-30T10:21:48;17.60;99.90
80426;DHT22;69766;51.476;5.704;2023-08-30T10:24:16;18.00;99.90
80426;DHT22;69766;51.476;5.704;2023-08-30T10:26:46;18.60;99.90
80426;DHT22;69766;51.476;5.704;2023-08-30T10:29:14;18.60;99.90
80426;DHT22;69766;51.476;5.704;2023-08-30T10:31:41;18.20;99.90
80426;DHT22;69766;51.476;5.704;2023-08-30T10:34:14;17.40;99.90
80426;DHT22;69766;51.476;5.704;2023-08-30T10:36:44;17.20;99.90
80426;DHT22;69766;51.476;5.704;2023-08-30T10:39:14;17.40;99.90
80426;DHT22;69766;51.476;5.704;2023-08-30T10:41:56;17.50;99.90
80426;DHT22;69766;51.476;5.704;2023-08-30T10:44:23;18.00;99.90
80426;DHT22;69766;51.476;5.704;2023-08-30T10:46:53;18.30;99.90
80426;DHT22;69766;51.476;5.704;2023-08-30T10:49:19;18.70;99.90
80426;DHT22;69766;51.476;5.704;2023-08-30T10:51:45;18.90;99.90
80426;DHT22;69766;51.476;5.704;2023-08-30T10:54:16;19.00;99.90
80426;DHT22;69766;51.476;5.704;2023-08-30T10:59:18;19.70;99.90
80426;DHT22;69766;51.476;5.704;2023-08-30T11:01:46;19.90;99.90
80426;DHT22;69766;51.476;5.704;2023-08-30T11:04:13;20.30;99.90
80426;DHT22;69766;51.476;5.704;2023-08-30T11:06:40;20.50;99.90
80426;DHT22;69766;51.476;5.704;2023-08-30T11:09:07;20.00;99.90
80426;DHT22;69766;51.476;5.704;2023-08-30T11:11:36;19.80;99.90
80426;DHT22;69766;51.476;5.704;2023-08-30T11:14:08;19.70;99.90
80426;DHT22;69766;51.476;5.704;2023-08-30T11:16:37;19.60;99.90
80426;DHT22;69766;51.476;5.704;2023-08-30T11:19:07;19.60;99.90
80426;DHT22;69766;51.476;5.704;2023-08-30T11:21:35;19.40;99.90
80426;DHT22;69766;51.476;5.704;2023-08-30T11:24:03;19.50;99.90
80426;DHT22;69766;51.476;5.704;2023-08-30T11:26:28;20.90;99.90
80426;DHT22;69766;51.476;5.704;2023-08-30T11:28:55;21.60;99.90
80426;DHT22;69766;51.476;5.704;2023-08-30T11:31:22;21.30;99.90
80426;DHT22;69766;51.476;5.704;2023-08-30T11:33:55;21.20;99.90
80426;DHT22;69766;51.476;5.704;2023-08-30T11:36:23;20.90;99.90
80426;DHT22;69766;51.476;5.704;2023-08-30T11:38:56;20.90;99.90
80426;DHT22;69766;51.476;5.704;2023-08-30T11:41:23;21.10;99.90
80426;DHT22;69766;51.476;5.704;2023-08-30T11:43:50;21.30;99.90
80426;DHT22;69766;51.476;5.704;2023-08-30T11:46:17;21.00;99.90
80426;DHT22;69766;51.476;5.704;2023-08-30T11:48:43;21.50;99.90
80426;DHT22;69766;51.476;5.704;2023-08-30T11:51:10;21.10;99.90
80426;DHT22;69766;51.476;5.704;2023-08-30T11:53:36;20.30;99.90
80426;DHT22;69766;51.476;5.704;2023-08-30T11:56:03;20.50;99.90
80426;DHT22;69766;51.476;5.704;2023-08-30T11:58:32;20.60;99.90
80426;DHT22;69766;51.476;5.704;2023-08-30T12:00:59;20.70;99.90
80426;DHT22;69766;51.476;5.704;2023-08-30T12:03:30;20.40;99.90
80426;DHT22;69766;51.476;5.704;2023-08-30T12:05:56;21.10;99.90
80426;DHT22;69766;51.476;5.704;2023-08-30T12:08:26;21.10;99.90
80426;DHT22;69766;51.476;5.704;2023-08-30T12:10:53;20.30;99.90
80426;DHT22;69766;51.476;5.704;2023-08-30T12:13:29;19.40;99.90
80426;DHT22;69766;51.476;5.704;2023-08-30T12:15:58;19.00;99.90
80426;DHT22;69766;51.476;5.704;2023-08-30T12:18:26;18.50;99.90
80426;DHT22;69766;51.476;5.704;2023-08-30T12:23:21;18.40;99.90
80426;DHT22;69766;51.476;5.704;2023-08-30T12:25:57;18.40;99.90
80426;DHT22;69766;51.476;5.704;2023-08-30T12:28:23;18.60;99.90
80426;DHT22;69766;51.476;5.704;2023-08-30T12:30:48;18.90;99.90
80426;DHT22;69766;51.476;5.704;2023-08-30T12:33:17;19.90;99.90
80426;DHT22;69766;51.476;5.704;2023-08-30T12:35:43;21.90;99.90
80426;DHT22;69766;51.476;5.704;2023-08-30T12:38:09;23.50;99.90
80426;DHT22;69766;51.476;5.704;2023-08-30T12:40:37;24.30;99.90
80426;DHT22;69766;51.476;5.704;2023-08-30T12:43:03;24.40;99.90
80426;DHT22;69766;51.476;5.704;2023-08-30T12:45:29;23.30;99.90
80426;DHT22;69766;51.476;5.704;2023-08-30T12:47:56;22.10;99.90
80426;DHT22;69766;51.476;5.704;2023-08-30T12:50:24;21.40;99.90
80426;DHT22;69766;51.476;5.704;2023-08-30T12:52:50;21.10;99.90
80426;DHT22;69766;51.476;5.704;2023-08-30T12:55:16;20.80;99.90
80426;DHT22;69766;51.476;5.704;2023-08-30T12:57:43;21.10;99.90
80426;DHT22;69766;51.476;5.704;2023-08-30T13:00:15;21.50;99.90
80426;DHT22;69766;51.476;5.704;2023-08-30T13:02:40;20.90;99.90
80426;DHT22;69766;51.476;5.704;2023-08-30T13:05:06;20.10;99.90
80426;DHT22;69766;51.476;5.704;2023-08-30T13:07:32;20.00;99.90
80426;DHT22;69766;51.476;5.704;2023-08-30T13:09:58;19.70;99.90
80426;DHT22;69766;51.476;5.704;2023-08-30T13:12:23;19.50;99.90
80426;DHT22;69766;51.476;5.704;2023-08-30T13:14:49;19.30;99.90
80426;DHT22;69766;51.476;5.704;2023-08-30T13:17:15;19.10;99.90
80426;DHT22;69766;51.476;5.704;2023-08-30T13:19:43;18.70;99.90
80426;DHT22;69766;51.476;5.704;2023-08-30T13:22:09;18.70;99.90
80426;DHT22;69766;51.476;5.704;2023-08-30T13:24:35;19.30;99.90
80426;DHT22;69766;51.476;5.704;2023-08-30T13:27:01;21.20;99.90
80426;DHT22;69766;51.476;5.704;2023-08-30T13:29:27;23.30;99.90
80426;DHT22;69766;51.476;5.704;2023-08-30T13:31:53;24.10;96.50
80426;DHT22;69766;51.476;5.704;2023-08-30T13:34:18;24.50;94.00
80426;DHT22;69766;51.476;5.704;2023-08-30T13:36:44;23.30;94.80
80426;DHT22;69766;51.476;5.704;2023-08-30T13:39:10;21.50;97.20
80426;DHT22;69766;51.476;5.704;2023-08-30T13:41:36;20.60;99.90
80426;DHT22;69766;51.476;5.704;2023-08-30T13:44:02;20.30;99.90
80426;DHT22;69766;51.476;5.704;2023-08-30T13:46:31;20.60;99.90
80426;DHT22;69766;51.476;5.704;2023-08-30T13:49:00;21.40;99.90
80426;DHT22;69766;51.476;5.704;2023-08-30T13:51:26;21.20;99.90
80426;DHT22;69766;51.476;5.704;2023-08-30T13:53:52;23.20;99.90
80426;DHT22;69766;51.476;5.704;2023-08-30T13:56:19;24.50;95.00
80426;DHT22;69766;51.476;5.704;2023-08-30T13:58:45;24.60;92.20
80426;DHT22;69766;51.476;5.704;2023-08-30T14:01:11;25.50;88.00
80426;DHT22;69766;51.476;5.704;2023-08-30T14:03:38;24.40;89.70
80426;DHT22;69766;51.476;5.704;2023-08-30T14:06:04;23.40;91.70
80426;DHT22;69766;51.476;5.704;2023-08-30T14:08:31;24.10;89.90
80426;DHT22;69766;51.476;5.704;2023-08-30T14:10:57;24.70;82.90
80426;DHT22;69766;51.476;5.704;2023-08-30T14:13:23;25.30;86.80
80426;DHT22;69766;51.476;5.704;2023-08-30T14:15:49;25.40;84.00
80426;DHT22;69766;51.476;5.704;2023-08-30T14:18:17;24.70;88.30
80426;DHT22;69766;51.476;5.704;2023-08-30T14:20:43;24.90;91.70
80426;DHT22;69766;51.476;5.704;2023-08-30T14:23:09;25.40;86.50
80426;DHT22;69766;51.476;5.704;2023-08-30T14:25:35;25.60;84.70
80426;DHT22;69766;51.476;5.704;2023-08-30T14:28:01;25.60;78.90
80426;DHT22;69766;51.476;5.704;2023-08-30T14:30:28;24.90;75.30
80426;DHT22;69766;51.476;5.704;2023-08-30T14:32:53;24.20;76.40
80426;DHT22;69766;51.476;5.704;2023-08-30T14:35:19;23.30;79.80
80426;DHT22;69766;51.476;5.704;2023-08-30T14:37:51;23.40;80.70
80426;DHT22;69766;51.476;5.704;2023-08-30T14:40:17;23.60;80.00
80426;DHT22;69766;51.476;5.704;2023-08-30T14:42:43;24.20;82.30
80426;DHT22;69766;51.476;5.704;2023-08-30T14:45:08;24.70;77.20
80426;DHT22;69766;51.476;5.704;2023-08-30T14:47:34;25.20;76.80
80426;DHT22;69766;51.476;5.704;2023-08-30T14:50:00;24.50;73.60
80426;DHT22;69766;51.476;5.704;2023-08-30T14:52:29;22.10;82.00
80426;DHT22;69766;51.476;5.704;2023-08-30T14:54:55;21.10;90.50
80426;DHT22;69766;51.476;5.704;2023-08-30T14:57:21;20.40;90.80
80426;DHT22;69766;51.476;5.704;2023-08-30T14:59:47;21.30;92.70
80426;DHT22;69766;51.476;5.704;2023-08-30T15:02:13;22.40;91.50
80426;DHT22;69766;51.476;5.704;2023-08-30T15:04:40;22.70;90.20
80426;DHT22;69766;51.476;5.704;2023-08-30T15:07:05;22.40;90.60
80426;DHT22;69766;51.476;5.704;2023-08-30T15:09:31;22.50;90.30
80426;DHT22;69766;51.476;5.704;2023-08-30T15:11:57;21.60;91.50
80426;DHT22;69766;51.476;5.704;2023-08-30T15:14:25;20.60;94.40
80426;DHT22;69766;51.476;5.704;2023-08-30T15:16:51;20.60;92.10
80426;DHT22;69766;51.476;5.704;2023-08-30T15:19:17;21.00;93.10
80426;DHT22;69766;51.476;5.704;2023-08-30T15:21:45;20.90;92.10
80426;DHT22;69766;51.476;5.704;2023-08-30T15:24:10;20.10;94.40
80426;DHT22;69766;51.476;5.704;2023-08-30T15:26:38;19.50;97.50
80426;DHT22;69766;51.476;5.704;2023-08-30T15:29:04;19.20;98.10
80426;DHT22;69766;51.476;5.704;2023-08-30T15:31:30;19.10;99.70
80426;DHT22;69766;51.476;5.704;2023-08-30T15:33:55;19.40;99.80
80426;DHT22;69766;51.476;5.704;2023-08-30T15:36:21;20.10;99.90
80426;DHT22;69766;51.476;5.704;2023-08-30T15:38:47;20.20;99.00
80426;DHT22;69766;51.476;5.704;2023-08-30T15:41:15;20.10;99.90
80426;DHT22;69766;51.476;5.704;2023-08-30T15:43:41;19.90;99.90
80426;DHT22;69766;51.476;5.704;2023-08-30T15:46:07;19.50;99.90